createdAt,value
2019-06-08T00:01:26.525Z,100220.33
2019-06-08T00:03:57.094Z,100205.38
2019-06-08T00:06:27.810Z,100203.97
2019-06-08T00:09:05.304Z,100207.39
2019-06-08T00:11:37.663Z,100201.10
2019-06-08T00:14:08.010Z,100209.15
2019-06-08T00:16:40.437Z,100221.01
2019-06-08T00:19:25.830Z,100238.56
2019-06-08T00:21:58.475Z,100235.85
2019-06-08T00:24:28.962Z,100248.80
2019-06-08T00:26:59.827Z,100263.13
2019-06-08T00:29:33.096Z,100266.41
2019-06-08T00:32:03.688Z,100286.53
2019-06-08T00:34:34.072Z,100284.48
2019-06-08T00:37:09.467Z,100282.61
2019-06-08T00:39:39.573Z,100300.52
2019-06-08T00:42:09.809Z,100283.86
2019-06-08T00:44:40.073Z,100277.30
2019-06-08T00:47:10.731Z,100269.62
2019-06-08T00:50:07.382Z,100275.34
2019-06-08T00:52:16.935Z,100283.86
2019-06-08T00:54:47.518Z,100296.67
2019-06-08T00:57:17.999Z,100299.00
2019-06-08T00:59:48.241Z,100305.59
2019-06-08T01:02:20.378Z,100296.70
2019-06-08T01:04:50.987Z,100293.87
2019-06-08T01:07:22.057Z,100304.52
2019-06-08T01:09:52.721Z,100294.44
2019-06-08T01:12:24.595Z,100294.55
2019-06-08T01:14:55.228Z,100329.44
2019-06-08T01:17:25.535Z,100337.15
2019-06-08T01:19:56.170Z,100349.94
2019-06-08T01:22:27.725Z,100345.71
2019-06-08T01:24:58.191Z,100332.17
2019-06-08T01:27:28.479Z,100325.56
2019-06-08T01:29:59.023Z,100335.52
2019-06-08T01:32:30.562Z,100324.65
2019-06-08T01:35:00.870Z,100333.94
2019-06-08T01:37:31.433Z,100348.32
2019-06-08T01:40:02.851Z,100369.85
2019-06-08T01:42:33.437Z,100385.34
2019-06-08T01:45:03.967Z,100389.08
2019-06-08T01:47:34.541Z,100399.53
2019-06-08T01:50:05.164Z,100412.06
2019-06-08T01:52:35.541Z,100405.30
2019-06-08T01:55:05.977Z,100404.53
2019-06-08T01:57:36.267Z,100401.63
2019-06-08T02:00:29.098Z,100374.30
2019-06-08T02:02:40.584Z,100370.66
2019-06-08T02:05:11.423Z,100350.98
2019-06-08T02:07:41.873Z,100350.59
2019-06-08T02:10:12.633Z,100356.52
2019-06-08T02:12:42.984Z,100360.89
2019-06-08T02:15:14.764Z,100364.54
2019-06-08T02:17:45.856Z,100359.60
2019-06-08T02:20:19.340Z,100367.88
2019-06-08T02:22:49.881Z,100371.77
2019-06-08T02:25:27.310Z,100373.61
2019-06-08T02:27:59.344Z,100371.57
2019-06-08T02:30:34.075Z,100368.80
2019-06-08T02:33:04.121Z,100371.78
2019-06-08T02:35:35.427Z,100364.31
2019-06-08T02:38:11.876Z,100356.83
2019-06-08T02:40:44.220Z,100361.27
2019-06-08T02:43:15.272Z,100358.27
2019-06-08T02:45:48.792Z,100332.88
2019-06-08T02:48:19.497Z,100329.87
2019-06-08T02:50:56.915Z,100347.80
2019-06-08T02:53:30.168Z,100347.25
2019-06-08T02:56:02.507Z,100365.38
2019-06-08T02:58:36.929Z,100375.05
2019-06-08T03:01:07.857Z,100370.33
2019-06-08T03:03:40.291Z,100368.53
2019-06-08T03:06:10.981Z,100368.23
2019-06-08T03:08:43.934Z,100369.30
2019-06-08T03:11:15.809Z,100376.16
2019-06-08T03:13:48.665Z,100375.77
2019-06-08T03:16:18.972Z,100381.84
2019-06-08T03:21:38.335Z,100380.91
2019-06-08T03:24:08.719Z,100380.95
2019-06-08T03:26:44.284Z,100383.31
2019-06-08T03:29:14.645Z,100386.48
2019-06-08T03:31:54.383Z,100381.75
2019-06-08T03:34:17.157Z,100384.41
2019-06-08T03:36:55.217Z,100391.07
2019-06-08T03:39:24.312Z,100401.91
2019-06-08T03:41:54.608Z,100407.70
2019-06-08T03:44:24.897Z,100417.42
2019-06-08T03:46:55.155Z,100422.58
2019-06-08T03:49:41.004Z,100429.35
2019-06-08T03:52:00.250Z,100429.14
2019-06-08T03:54:30.531Z,100432.52
2019-06-08T03:57:02.388Z,100429.47
2019-06-08T03:59:32.902Z,100433.11
2019-06-08T04:02:03.488Z,100432.45
2019-06-08T04:04:33.772Z,100425.89
2019-06-08T04:07:04.155Z,100437.95
2019-06-08T04:09:34.723Z,100430.53
2019-06-08T04:12:05.271Z,100446.36
2019-06-08T04:14:37.708Z,100452.67
2019-06-08T04:17:07.901Z,100463.78
2019-06-08T04:19:44.659Z,100466.05
2019-06-08T04:22:10.247Z,100470.63
2019-06-08T04:24:42.322Z,100482.52
2019-06-08T04:27:12.838Z,100481.77
2019-06-08T04:29:43.977Z,100476.17
2019-06-08T04:32:14.747Z,100481.11
2019-06-08T04:34:45.965Z,100483.30
2019-06-08T04:37:17.125Z,100482.87
2019-06-08T04:39:47.405Z,100485.86
2019-06-08T04:42:17.781Z,100494.17
2019-06-08T04:44:49.416Z,100501.05
2019-06-08T04:47:19.651Z,100506.77
2019-06-08T04:49:50.325Z,100506.08
2019-06-08T04:52:20.874Z,100511.45
2019-06-08T04:54:51.172Z,100514.95
2019-06-08T04:57:21.764Z,100512.96
2019-06-08T04:59:52.060Z,100511.78
2019-06-08T05:02:23.146Z,100528.82
2019-06-08T05:04:53.474Z,100539.78
2019-06-08T05:07:24.070Z,100543.23
2019-06-08T05:09:54.458Z,100552.41
2019-06-08T05:12:25.333Z,100541.00
2019-06-08T05:14:56.030Z,100509.29
2019-06-08T05:17:26.370Z,100507.22
2019-06-08T05:19:56.660Z,100522.47
2019-06-08T05:22:27.205Z,100519.23
2019-06-08T05:24:57.580Z,100502.93
2019-06-08T05:27:28.170Z,100502.09
2019-06-08T05:29:58.838Z,100503.34
2019-06-08T05:32:29.092Z,100505.86
2019-06-08T05:34:59.674Z,100498.85
2019-06-08T05:37:30.054Z,100503.62
2019-06-08T05:40:00.314Z,100513.12
2019-06-08T05:42:30.641Z,100511.81
2019-06-08T05:45:01.013Z,100522.16
2019-06-08T05:47:31.350Z,100536.06
2019-06-08T05:50:02.813Z,100552.80
2019-06-08T05:52:37.978Z,100554.41
2019-06-08T05:55:09.503Z,100554.41
2019-06-08T05:57:46.322Z,100561.81
2019-06-08T06:00:17.124Z,100571.47
2019-06-08T06:02:48.917Z,100568.10
2019-06-08T06:05:19.601Z,100576.13
2019-06-08T06:07:55.388Z,100595.90
2019-06-08T06:10:29.811Z,100618.17
2019-06-08T06:13:03.482Z,100619.42
2019-06-08T06:15:38.007Z,100621.11
2019-06-08T06:18:19.905Z,100623.13
2019-06-08T06:20:52.683Z,100613.65
2019-06-08T06:23:30.078Z,100617.89
2019-06-08T06:26:08.972Z,100637.76
2019-06-08T06:28:35.222Z,100638.62
2019-06-08T06:31:06.373Z,100641.61
2019-06-08T06:33:36.732Z,100643.89
2019-06-08T06:36:07.037Z,100651.19
2019-06-08T06:38:37.275Z,100655.94
2019-06-08T06:41:07.617Z,100655.59
2019-06-08T06:43:37.884Z,100648.44
2019-06-08T06:46:08.190Z,100653.45
2019-06-08T06:48:44.003Z,100655.98
2019-06-08T06:51:26.290Z,100648.77
2019-06-08T06:53:53.107Z,100653.53
2019-06-08T06:56:23.669Z,100657.94
2019-06-08T06:58:55.827Z,100671.52
2019-06-08T07:01:40.668Z,100677.78
2019-06-08T07:04:11.766Z,100677.78
2019-06-08T07:06:42.149Z,100691.52
2019-06-08T07:09:12.947Z,100695.98
2019-06-08T07:11:44.434Z,100682.81
2019-06-08T07:14:14.724Z,100682.17
2019-06-08T07:16:47.794Z,100667.84
2019-06-08T07:19:18.258Z,100661.17
2019-06-08T07:21:50.243Z,100641.73
2019-06-08T07:24:22.699Z,100627.05
2019-06-08T07:26:54.543Z,100629.54
2019-06-08T07:29:25.485Z,100645.81
2019-06-08T07:31:55.861Z,100664.34
2019-06-08T07:34:26.462Z,100671.71
2019-06-08T07:36:56.964Z,100671.84
2019-06-08T07:39:27.943Z,100658.03
2019-06-08T07:42:13.317Z,100659.16
2019-06-08T07:44:46.758Z,100681.65
2019-06-08T07:47:26.924Z,100693.25
2019-06-08T07:50:07.640Z,100672.97
2019-06-08T07:52:42.755Z,100677.56
2019-06-08T07:55:21.370Z,100691.34
2019-06-08T07:58:00.443Z,100684.57
2019-06-08T08:00:39.981Z,100670.90
2019-06-08T08:03:10.776Z,100701.67
2019-06-08T08:05:50.386Z,100701.26
2019-06-08T08:08:28.851Z,100716.89
2019-06-08T08:10:56.809Z,100704.58
2019-06-08T08:13:31.513Z,100688.84
2019-06-08T08:16:17.551Z,100686.12
2019-06-08T08:18:57.595Z,100670.01
2019-06-08T08:21:53.333Z,100666.07
2019-06-08T08:24:07.754Z,100677.67
2019-06-08T08:26:40.268Z,100687.75
2019-06-08T08:29:12.224Z,100691.51
2019-06-08T08:31:43.239Z,100705.95
2019-06-08T08:34:28.405Z,100696.22
2019-06-08T08:37:09.525Z,100718.34
2019-06-08T08:39:47.326Z,100700.33
2019-06-08T08:42:18.713Z,100703.35
2019-06-08T08:47:30.738Z,100702.20
2019-06-08T08:50:07.420Z,100716.55
2019-06-08T08:52:44.703Z,100729.64
2019-06-08T08:55:24.340Z,100722.95
2019-06-08T08:58:03.922Z,100728.69
2019-06-08T09:00:41.184Z,100732.02
2019-06-08T09:03:28.984Z,100736.73
2019-06-08T09:06:01.352Z,100731.02
2019-06-08T09:08:33.057Z,100729.78
2019-06-08T09:11:03.906Z,100740.70
2019-06-08T09:13:37.749Z,100739.42
2019-06-08T09:16:13.121Z,100735.27
2019-06-08T09:19:02.471Z,100744.50
2019-06-08T09:21:38.381Z,100747.12
2019-06-08T09:24:18.451Z,100740.44
2019-06-08T09:27:00.179Z,100754.75
2019-06-08T09:29:28.873Z,100756.62
2019-06-08T09:32:01.692Z,100752.09
2019-06-08T09:34:32.124Z,100759.48
2019-06-08T09:40:35.284Z,100746.18
2019-06-08T09:42:55.423Z,100746.37
2019-06-08T09:45:30.537Z,100742.88
2019-06-08T09:48:18.210Z,100751.96
2019-06-08T09:51:03.931Z,100756.12
2019-06-08T09:53:41.934Z,100758.13
2019-06-08T09:56:18.304Z,100746.52
2019-06-08T09:59:01.336Z,100746.05
2019-06-08T10:01:33.319Z,100750.34
2019-06-08T10:04:09.629Z,100764.88
2019-06-08T10:06:54.321Z,100786.36
2019-06-08T10:09:21.470Z,100771.79
2019-06-08T10:11:52.063Z,100771.30
2019-06-08T10:14:24.452Z,100775.14
2019-06-08T10:17:01.228Z,100779.39
2019-06-08T10:19:42.090Z,100777.41
2019-06-08T10:22:18.385Z,100772.59
2019-06-08T10:24:50.877Z,100756.86
2019-06-08T10:27:22.722Z,100763.31
2019-06-08T10:30:01.257Z,100753.13
2019-06-08T10:32:34.482Z,100756.98
2019-06-08T10:35:08.055Z,100762.02
2019-06-08T10:37:55.081Z,100755.75
2019-06-08T10:40:29.864Z,100750.06
2019-06-08T10:43:09.493Z,100750.03
2019-06-08T10:45:52.550Z,100754.63
2019-06-08T10:48:18.030Z,100745.22
2019-06-08T10:50:58.550Z,100741.44
2019-06-08T10:53:47.515Z,100736.31
2019-06-08T10:56:10.300Z,100737.59
2019-06-08T10:58:38.852Z,100742.20
2019-06-08T11:01:12.914Z,100739.25
2019-06-08T11:04:00.295Z,100748.17
2019-06-08T11:06:33.163Z,100738.68
2019-06-08T11:09:13.197Z,100765.21
2019-06-08T11:11:42.321Z,100747.05
2019-06-08T11:14:22.369Z,100756.20
2019-06-08T11:16:51.769Z,100742.20
2019-06-08T11:19:26.379Z,100755.49
2019-06-08T11:21:57.969Z,100759.78
2019-06-08T11:24:32.281Z,100762.05
2019-06-08T11:27:03.561Z,100768.05
2019-06-08T11:29:34.193Z,100772.01
2019-06-08T11:32:06.558Z,100770.50
2019-06-08T11:34:38.304Z,100783.25
2019-06-08T11:37:18.611Z,100781.19
2019-06-08T11:39:45.223Z,100782.51
2019-06-08T11:42:19.226Z,100782.44
2019-06-08T11:44:54.853Z,100782.05
2019-06-08T11:47:43.525Z,100780.30
2019-06-08T11:50:18.273Z,100769.73
2019-06-08T11:52:52.735Z,100780.05
2019-06-08T11:55:27.998Z,100780.50
2019-06-08T11:58:09.786Z,100771.27
2019-06-08T12:01:09.956Z,100790.52
2019-06-08T12:03:39.363Z,100795.45
2019-06-08T12:06:15.344Z,100781.18
2019-06-08T12:08:47.349Z,100783.66
2019-06-08T12:11:28.393Z,100801.55
2019-06-08T12:13:59.452Z,100797.88
2019-06-08T12:16:31.137Z,100802.20
2019-06-08T12:19:13.219Z,100792.61
2019-06-08T12:21:44.436Z,100800.17
2019-06-08T12:24:19.135Z,100792.63
2019-06-08T12:26:59.945Z,100795.02
2019-06-08T12:29:28.412Z,100808.17
2019-06-08T12:32:10.476Z,100798.06
2019-06-08T12:34:43.481Z,100794.59
2019-06-08T12:37:21.408Z,100789.63
2019-06-08T12:40:00.910Z,100812.72
2019-06-08T12:42:38.001Z,100812.28
2019-06-08T12:48:50.437Z,100803.64
2019-06-08T12:51:21.805Z,100814.05
2019-06-08T12:54:05.157Z,100811.11
2019-06-08T12:56:37.788Z,100808.92
2019-06-08T12:59:13.825Z,100804.62
2019-06-08T13:01:54.070Z,100820.85
2019-06-08T13:04:28.632Z,100823.58
2019-06-08T13:06:59.606Z,100821.33
2019-06-08T13:09:37.927Z,100821.06
2019-06-08T13:12:15.120Z,100822.96
2019-06-08T13:15:10.129Z,100826.05
2019-06-08T13:17:50.548Z,100819.61
2019-06-08T13:20:33.708Z,100825.09
2019-06-08T13:23:21.664Z,100824.30
2019-06-08T13:26:00.229Z,100827.16
2019-06-08T13:28:32.382Z,100831.32
2019-06-08T13:31:07.869Z,100838.20
2019-06-08T13:34:01.135Z,100836.73
2019-06-08T13:36:42.889Z,100833.13
2019-06-08T13:39:21.178Z,100832.79
2019-06-08T13:42:04.460Z,100833.16
2019-06-08T13:44:34.476Z,100825.44
2019-06-08T13:47:14.317Z,100831.88
2019-06-08T13:49:47.613Z,100833.73
2019-06-08T13:52:22.453Z,100844.29
2019-06-08T13:54:54.921Z,100835.77
2019-06-08T13:57:25.536Z,100842.47
2019-06-08T13:59:57.818Z,100840.17
2019-06-08T14:02:31.672Z,100838.42
2019-06-08T14:05:27.737Z,100831.83
2019-06-08T14:07:59.157Z,100841.72
2019-06-08T14:10:44.280Z,100836.52
2019-06-08T14:13:17.408Z,100837.15
2019-06-08T14:15:49.115Z,100836.41
2019-06-08T14:18:26.321Z,100830.17
2019-06-08T14:20:55.206Z,100830.30
2019-06-08T14:23:25.724Z,100841.39
2019-06-08T14:26:00.170Z,100842.12
2019-06-08T14:28:31.010Z,100839.09
2019-06-08T14:31:02.192Z,100832.72
2019-06-08T14:33:33.973Z,100834.30
2019-06-08T14:36:04.944Z,100835.64
2019-06-08T14:38:40.982Z,100838.81
2019-06-08T14:41:07.716Z,100834.14
2019-06-08T14:43:38.373Z,100838.33
2019-06-08T14:46:08.767Z,100837.44
2019-06-08T14:48:39.138Z,100839.14
2019-06-08T14:51:09.734Z,100835.34
2019-06-08T14:53:41.859Z,100840.87
2019-06-08T14:56:12.284Z,100839.25
2019-06-08T14:58:44.823Z,100836.38
2019-06-08T15:01:19.446Z,100848.41
2019-06-08T15:03:48.222Z,100846.45
2019-06-08T15:06:19.399Z,100850.53
2019-06-08T15:08:50.335Z,100846.00
2019-06-08T15:11:21.327Z,100841.09
2019-06-08T15:13:52.229Z,100848.99
2019-06-08T15:16:24.024Z,100842.72
2019-06-08T15:18:54.466Z,100841.08
2019-06-08T15:21:26.512Z,100841.23
2019-06-08T15:23:59.926Z,100835.83
2019-06-08T15:26:39.615Z,100846.67
2019-06-08T15:29:04.806Z,100842.22
2019-06-08T15:31:48.136Z,100848.65
2019-06-08T15:34:17.789Z,100844.36
2019-06-08T15:36:51.641Z,100842.12
2019-06-08T15:39:23.380Z,100858.70
2019-06-08T15:42:00.206Z,100842.80
2019-06-08T15:44:41.386Z,100854.02
2019-06-08T15:47:14.227Z,100849.97
2019-06-08T15:50:05.221Z,100858.81
2019-06-08T15:52:44.764Z,100852.30
2019-06-08T15:55:34.454Z,100850.03
2019-06-08T15:57:51.311Z,100854.50
2019-06-08T16:00:22.976Z,100844.25
2019-06-08T16:02:56.629Z,100854.53
2019-06-08T16:05:29.645Z,100864.45
2019-06-08T16:08:00.210Z,100850.78
2019-06-08T16:10:30.800Z,100860.53
2019-06-08T16:13:02.189Z,100856.78
2019-06-08T16:15:33.402Z,100856.83
2019-06-08T16:18:04.088Z,100858.50
2019-06-08T16:20:37.498Z,100859.53
2019-06-08T16:23:07.988Z,100856.42
2019-06-08T16:25:41.271Z,100847.09
2019-06-08T16:28:11.858Z,100851.76
2019-06-08T16:30:42.781Z,100849.55
2019-06-08T16:33:13.566Z,100849.47
2019-06-08T16:35:44.384Z,100842.56
2019-06-08T16:38:15.283Z,100852.39
2019-06-08T16:40:46.219Z,100848.14
2019-06-08T16:43:19.585Z,100859.63
2019-06-08T16:45:51.834Z,100857.38
2019-06-08T16:48:22.100Z,100854.25
2019-06-08T16:50:52.750Z,100852.58
2019-06-08T16:53:23.660Z,100860.03
2019-06-08T16:55:54.513Z,100861.13
2019-06-08T16:58:24.842Z,100859.03
2019-06-08T17:00:56.927Z,100861.85
2019-06-08T17:03:36.913Z,100848.99
2019-06-08T17:06:07.419Z,100859.25
2019-06-08T17:08:41.700Z,100854.26
2019-06-08T17:11:11.578Z,100859.94
2019-06-08T17:13:42.171Z,100858.44
2019-06-08T17:16:12.458Z,100861.22
2019-06-08T17:18:42.972Z,100857.02
2019-06-08T17:21:13.433Z,100862.66
2019-06-08T17:23:44.024Z,100880.43
2019-06-08T17:26:14.629Z,100869.28
2019-06-08T17:28:45.019Z,100868.44
2019-06-08T17:31:15.382Z,100872.66
2019-06-08T17:33:45.687Z,100863.34
2019-06-08T17:36:19.438Z,100867.11
2019-06-08T17:38:52.492Z,100869.48
2019-06-08T17:41:41.998Z,100868.84
2019-06-08T17:44:27.129Z,100870.60
2019-06-08T17:47:06.438Z,100871.06
2019-06-08T17:49:54.226Z,100871.08
2019-06-08T17:52:33.274Z,100876.95
2019-06-08T17:55:16.210Z,100874.85
2019-06-08T17:57:53.679Z,100879.11
2019-06-08T18:00:24.692Z,100881.78
2019-06-08T18:03:00.540Z,100884.89
2019-06-08T18:05:31.554Z,100887.40
2019-06-08T18:08:12.465Z,100890.64
2019-06-08T18:10:57.541Z,100898.58
2019-06-08T18:13:48.368Z,100906.22
2019-06-08T18:16:24.038Z,100902.48
2019-06-08T18:19:14.602Z,100910.58
2019-06-08T18:21:54.679Z,100908.49
2019-06-08T18:24:28.148Z,100915.16
2019-06-08T18:27:07.770Z,100915.20
2019-06-08T18:29:42.939Z,100918.63
2019-06-08T18:32:19.750Z,100923.20
2019-06-08T18:34:54.315Z,100928.30
2019-06-08T18:37:28.435Z,100931.28
2019-06-08T18:40:17.716Z,100929.74
2019-06-08T18:42:57.622Z,100942.48
2019-06-08T18:45:31.681Z,100938.73
2019-06-08T18:48:57.807Z,100944.36
2019-06-08T18:50:46.099Z,100948.22
2019-06-08T18:53:28.954Z,100946.07
2019-06-08T18:56:05.277Z,100951.49
2019-06-08T18:58:39.727Z,100959.56
2019-06-08T19:01:33.620Z,100960.69
2019-06-08T19:04:19.318Z,100965.13
2019-06-08T19:07:09.401Z,100963.22
2019-06-08T19:09:45.988Z,100971.76
2019-06-08T19:12:27.746Z,100968.45
2019-06-08T19:14:59.689Z,100979.02
2019-06-08T19:17:30.424Z,100988.16
2019-06-08T19:20:04.989Z,100990.18
2019-06-08T19:22:38.522Z,100987.39
2019-06-08T19:25:09.717Z,100989.94
2019-06-08T19:27:49.116Z,100998.61
2019-06-08T19:30:20.129Z,101000.09
2019-06-08T19:32:53.218Z,101002.00
2019-06-08T19:35:27.383Z,101006.14
2019-06-08T19:38:03.022Z,101006.22
2019-06-08T19:40:38.820Z,101007.47
2019-06-08T19:43:18.879Z,101012.08
2019-06-08T19:46:07.230Z,101018.02
2019-06-08T19:48:39.691Z,101023.59
2019-06-08T19:51:42.847Z,101029.20
2019-06-08T19:53:55.119Z,101034.89
2019-06-08T19:56:35.530Z,101036.48
2019-06-08T19:59:08.344Z,101037.94
2019-06-08T20:01:48.009Z,101040.85
2019-06-08T20:07:01.122Z,101045.86
2019-06-08T20:09:37.488Z,101051.28
2019-06-08T20:12:11.910Z,101056.68
2019-06-08T20:14:48.005Z,101061.05
2019-06-08T20:17:22.903Z,101060.41
2019-06-08T20:20:01.233Z,101063.70
2019-06-08T20:22:41.803Z,101067.87
2019-06-08T20:25:12.505Z,101074.41
2019-06-08T20:27:43.538Z,101075.56
2019-06-08T20:30:21.205Z,101070.28
2019-06-08T20:32:54.550Z,101067.45
2019-06-08T20:35:33.061Z,101075.91
2019-06-08T20:38:11.519Z,101074.44
2019-06-08T20:40:44.047Z,101077.42
2019-06-08T20:43:22.961Z,101080.97
2019-06-08T20:45:53.521Z,101078.97
2019-06-08T20:48:27.551Z,101077.78
2019-06-08T20:53:35.341Z,101081.28
2019-06-08T20:56:07.982Z,101080.70
2019-06-08T20:58:43.355Z,101085.61
2019-06-08T21:01:18.038Z,101085.92
2019-06-08T21:03:48.579Z,101089.83
2019-06-08T21:06:32.446Z,101088.59
2019-06-08T21:08:57.617Z,101089.17
2019-06-08T21:12:04.221Z,101087.67
2019-06-08T21:14:27.264Z,101088.53
2019-06-08T21:17:55.381Z,101090.36
2019-06-08T21:20:29.780Z,101095.14
2019-06-08T21:23:02.142Z,101093.58
2019-06-08T21:25:49.643Z,101093.16
2019-06-08T21:28:17.049Z,101098.39
2019-06-08T21:30:53.347Z,101094.98
2019-06-08T21:33:34.948Z,101099.36
2019-06-08T21:36:13.357Z,101095.42
2019-06-08T21:38:55.690Z,101091.59
2019-06-08T21:41:34.065Z,101091.61
2019-06-08T21:44:09.442Z,101090.90
2019-06-08T21:46:48.722Z,101093.20
2019-06-08T21:49:18.336Z,101090.72
2019-06-08T21:51:53.024Z,101087.55
2019-06-08T21:54:27.229Z,101099.25
2019-06-08T21:57:10.580Z,101092.88
2019-06-08T21:59:47.351Z,101089.62
2019-06-08T22:02:19.142Z,101087.84
2019-06-08T22:04:54.660Z,101093.56
2019-06-08T22:07:31.667Z,101098.02
2019-06-08T22:10:10.550Z,101094.99
2019-06-08T22:12:59.289Z,101095.61
2019-06-08T22:15:27.080Z,101097.06
2019-06-08T22:18:00.126Z,101093.90
2019-06-08T22:20:39.207Z,101095.71
2019-06-08T22:23:17.892Z,101097.84
2019-06-08T22:25:48.918Z,101097.42
2019-06-08T22:28:26.994Z,101094.89
2019-06-08T22:30:59.900Z,101094.34
2019-06-08T22:33:38.236Z,101103.19
2019-06-08T22:36:16.998Z,101102.66
2019-06-08T22:38:58.900Z,101106.02
2019-06-08T22:41:28.121Z,101106.70
2019-06-08T22:44:03.167Z,101110.44
2019-06-08T22:46:53.809Z,101107.40
2019-06-08T22:49:24.748Z,101112.94
2019-06-08T22:52:01.326Z,101106.84
2019-06-08T22:54:42.940Z,101106.22
2019-06-08T22:57:13.153Z,101106.02
2019-06-08T22:59:47.737Z,101109.42
2019-06-08T23:02:20.837Z,101113.61
2019-06-08T23:05:04.194Z,101115.52
2019-06-08T23:07:45.868Z,101112.08
2019-06-08T23:10:17.479Z,101120.63
2019-06-08T23:12:51.331Z,101118.06
2019-06-08T23:15:26.827Z,101121.85
2019-06-08T23:17:59.551Z,101115.62
2019-06-08T23:21:04.341Z,101116.09
2019-06-08T23:23:19.201Z,101110.89
2019-06-08T23:25:51.104Z,101104.03
2019-06-08T23:28:22.178Z,101111.77
2019-06-08T23:31:25.535Z,101113.47
2019-06-08T23:34:03.604Z,101111.37
2019-06-08T23:37:11.976Z,101114.27
2019-06-08T23:39:18.309Z,101111.00
2019-06-08T23:41:52.241Z,101114.41
2019-06-08T23:44:28.151Z,101115.16
2019-06-08T23:47:01.240Z,101120.12
2019-06-08T23:49:33.285Z,101127.02
2019-06-08T23:52:09.658Z,101129.73
2019-06-08T23:54:44.040Z,101130.71
2019-06-08T23:57:15.061Z,101141.29
2019-06-08T23:59:47.879Z,101141.45
